• Join FlightAware (Why Join?)
  • Login
  • US Flag 
05:00PM EST


 

Airport Tracker/Info


-or-


 

Live Flight TrackerFlight Track Log ✈ SWA1377 ✈ 11-Apr-2013 ✈ KMDW - KMHT

Flight Track Log - Related Links

Times and Time Zones

All times are in EDT time to prevent confusion due to time zone crossing. See the SWA1377 flight status page for this flight to view local times or setup timezone preferences in your user account.

Time Position Orientation Groundspeed Altitude Reporting Facility
EDT Latitude Longitude Course Direction KTS MPH feet Rate Location/Type
10:24PM 41.8000 -87.7667 75° East 162 186 2,200  Level Chicago TRACON
10:26PM 41.8161 -87.6836 75° East 227 261 3,400 1,560 Climbing Chicago Center
10:27PM 41.8017 -87.5872 101° East 251 289 6,300 3,120 Climbing Chicago Center
10:28PM 41.7922 -87.4800 97° East 286 329 9,800 3,480 Climbing Chicago Center
10:29PM 41.7844 -87.3725 96° East 290 334 13,500 3,480 Climbing Chicago Center
10:30PM 41.7736 -87.2383 96° East 302 348 17,100 2,700 Climbing Chicago Center
10:31PM 41.7661 -87.1119 95° East 333 383 19,100 1,860 Climbing Chicago Center
10:32PM 41.7828 -86.9647 81° East 396 456 21,000 1,740 Climbing Chicago Center
10:33PM 41.8011 -86.8067 81° East 424 488 22,700 960 Climbing Chicago Center
10:34PM 41.8197 -86.6267 82° East 448 516 23,000 180 Climbing Chicago Center
10:35PM 41.8361 -86.4622 82° East 446 513 23,100 960 Climbing Chicago Center
10:36PM 41.8514 -86.2964 83° East 448 516 25,000 1,800 Climbing Chicago Center
10:37PM 41.8683 -86.1272 82° East 455 524 26,900 1,980 Climbing Chicago Center
10:38PM 41.8850 -85.9539 83° East 467 537 29,100 1,980 Climbing Chicago Center
10:39PM 41.9008 -85.7833 83° East 461 531 31,000 1,560 Climbing Chicago Center
10:40PM 41.9175 -85.6083 83° East 467 537 32,400 1,260 Climbing Chicago Center
10:41PM 41.9336 -85.4272 83° East 480 552 33,600 1,080 Climbing Chicago Center
10:42PM 41.9508 -85.2422 83° East 493 567 34,700 1,140 Climbing Chicago Center
10:43PM 41.9514 -85.0567 90° East 493 567 36,000 1,200 Climbing Chicago Center
10:44PM 41.9519 -84.8358 90° East 490 564 37,400 1,140 Climbing Cleveland Center
10:45PM 41.9525 -84.6517 90° East 490 564 38,500 780 Climbing Cleveland Center
10:46PM 41.9483 -84.4669 92° East 490 564 39,000 240 Climbing Cleveland Center
10:47PM 41.9444 -84.2686 91° East 495 570 39,000  Level Cleveland Center
10:48PM 41.9419 -84.0869 91° East 490 564 39,000  Level Cleveland Center
10:49PM 41.9411 -83.8997 90° East 490 564 39,000  Level Cleveland Center
10:50PM 41.9358 -83.7181 92° East 490 564 39,000  Level Cleveland Center
10:51PM 41.9322 -83.5364 91° East 490 564 39,000  Level Cleveland Center
10:52PM 41.9306 -83.3519 91° East 490 564 39,000  Level Cleveland Center
10:53PM 41.9289 -83.1622 91° East 495 570 39,000  Level Cleveland Center
10:54PM 41.9289 -82.9722 90° East 500 575 39,000  Level Cleveland Center
10:55PM 41.9283 -82.7853 90° East 506 582 39,000  Level Cleveland Center
10:56PM 41.9256 -82.5981 91° East 506 582 39,000  Level Cleveland Center
10:57PM 41.9267 -82.4056 89° East 501 577 39,000  Level Cleveland Center
10:58PM 41.9211 -82.2156 92° East 501 577 39,000  Level Cleveland Center
10:59PM 41.9217 -82.0258 90° East 501 577 39,000  Level Cleveland Center
11:00PM 41.9197 -81.8333 91° East 506 582 39,000  Level Cleveland Center
11:01PM 41.9383 -81.6411 83° East 511 588 39,000  Level Cleveland Center
11:02PM 41.9608 -81.4517 81° East 521 600 39,000  Level Cleveland Center
11:03PM 41.9808 -81.2592 82° East 521 600 39,000  Level Cleveland Center
11:04PM 41.9986 -81.0636 83° East 526 605 39,000  Level Cleveland Center
11:05PM 42.0178 -80.8933 81° East 520 598 39,000  Level Cleveland Center
11:06PM 42.0392 -80.7006 81° East 520 598 39,000  Level Cleveland Center
11:07PM 42.0600 -80.5133 81° East 515 593 39,000  Level Cleveland Center
11:08PM 42.0764 -80.3231 83° East 515 593 39,000  Level Cleveland Center
11:09PM 42.0947 -80.1328 83° East 515 593 39,000  Level Cleveland Center
11:10PM 42.1164 -79.9253 82° East 515 593 39,000  Level Cleveland Center
11:11PM 42.1319 -79.7375 84° East 510 587 39,000  Level Cleveland Center
11:12PM 42.1511 -79.5442 82° East 510 587 39,000  Level Cleveland Center
11:13PM 42.1681 -79.3561 83° East 505 581 39,000  Level Cleveland Center
11:14PM 42.1847 -79.1625 83° East 505 581 39,000  Level Cleveland Center
11:15PM 42.2092 -78.9714 80° East 505 581 39,000  Level Cleveland Center
11:16PM 42.2336 -78.7772 80° East 511 588 39,000  Level Cleveland Center
11:17PM 42.2594 -78.5828 80° East 518 596 39,000  Level Cleveland Center
11:18PM 42.2811 -78.3914 81° East 523 602 39,000  Level Cleveland Center
11:19PM 42.3064 -78.1967 80° East 523 602 39,000  Level Cleveland Center
11:20PM 42.3292 -78.0019 81° East 523 602 39,000 -360 Level Cleveland Center
11:21PM 42.3519 -77.8128 81° East 518 596 38,300 -900 Descending Cleveland Center
11:22PM 42.3722 -77.6264 82° East 518 596 37,300 -660 Descending Cleveland Center
11:23PM 42.3922 -77.4369 82° East 507 583 37,000 -120 Descending Cleveland Center
11:26PM 42.4425 -76.9903 81° East 498 573 37,000  Level Boston Center
11:27PM 42.4644 -76.8031 81° East 498 573 37,000  Level Boston Center
11:28PM 42.4833 -76.6328 81° East 504 580 37,000  Level Boston Center
11:29PM 42.5006 -76.4450 83° East 504 580 37,000  Level Boston Center
11:30PM 42.5239 -76.2578 80° East 499 574 37,000  Level Boston Center
11:31PM 42.5453 -76.0506 82° East 499 574 37,000 -60 Level Boston Center
11:32PM 42.5636 -75.8597 83° East 499 574 36,900  Descending Boston Center
11:33PM 42.5817 -75.6717 83° East 499 574 37,000 -660 Climbing Boston Center
11:34PM 42.5972 -75.4808 84° East 499 574 35,700 -2,100 Descending Boston Center
11:35PM 42.6169 -75.2897 82° East 504 580 32,800 -2,820 Descending Boston Center
11:36PM 42.6361 -75.1017 82° East 504 580 30,100 -2,880 Descending Boston Center
11:37PM 42.6528 -74.9103 83° East 504 580 27,100 -3,000 Descending Boston Center
11:38PM 42.6714 -74.7161 83° East 504 580 24,100 -1,620 Descending Boston Center
11:39PM 42.6853 -74.5414 84° East 487 560 23,900 -60 Descending Boston Center
11:40PM 42.6964 -74.3864 84° East 450 518 24,000  Climbing Boston Center
11:41PM 42.7114 -74.2258 83° East 430 495 24,000  Level Boston Center
11:42PM 42.7244 -74.0653 84° East 425 489 24,000  Level Boston Center
11:43PM 42.7369 -73.9072 84° East 425 489 24,000  Level Boston Center
11:44PM 42.7492 -73.7464 84° East 425 489 24,000  Level Boston Center
11:45PM 42.7572 -73.5911 86° East 432 497 24,000  Level Boston Center
11:46PM 42.7631 -73.4158 87° East 450 518 24,000  Level Boston Center
11:47PM 42.7686 -73.2347 88° East 467 537 24,000 -480 Level Boston Center
11:48PM 42.7758 -73.0539 87° East 472 543 23,100 -1,680 Descending Boston Center
11:49PM 42.7789 -72.8586 89° East 472 543 20,600 -2,220 Descending Boston Center
11:50PM 42.7856 -72.7117 86° East 467 537 18,700 -2,040 Descending Boston Center
11:51PM 42.7900 -72.5447 88° East 441 507 16,600 -2,220 Descending Boston Center
11:52PM 42.7942 -72.3836 88° East 429 494 14,200 -2,400 Descending Boston Center
11:53PM 42.8003 -72.2108 87° East 418 481 11,800 -2,040 Descending Boston Center
11:54PM 42.8103 -72.0750 84° East 407 468 10,300 -1,020 Descending Boston Center
11:55PM 42.8203 -71.9306 85° East 366 421 9,800 -660 Descending Boston Center
11:56PM 42.8156 -71.8061 93° East 327 376 9,000 -540 Descending Boston Center
11:57PM 42.8106 -71.6958 93° East 310 357 8,800 -1,200 Descending Boston Center
11:58PM 42.7911 -71.5883 104° East 290 334 6,700 -1,560 Descending Boston Center
11:59PM 42.7714 -71.4842 104° East 290 334 5,700 -900 Descending Boston Center
12:00AM 42.7808 -71.3736 83° East 242 278 4,600 -840 Descending Boston Center
12:01AM 42.8181 -71.3278 42° Northeast 161 185 3,700 -1,260 Descending Boston Center
12:02AM 42.8433 -71.3642 313° West 95 109 2,100 -1,260 Descending Boston Center
12:03AM 42.8769 -71.4003 322° Northwest 125 144 1,300 -780 Descending Boston Center
12:04AM 42.9106 -71.4194 337° Northwest 133 153 600 -480 Descending Boston Center
12:05AM 42.9422 -71.4503 325° Northwest 133 153 400 4,140 Descending Boston Center
12:06AM 42.9736 -71.4781 327° Northwest 133 153 9,000 4,320 Climbing Boston Center
12:07AM 43.0050 -71.5061 327° Northwest 133 153 9,000  Level Boston Center
12:09AM 42.9328 -71.4358 154° Southeast  Level Estimated
12:16AM 42.9328 -71.4358 154° Southeast  Level Estimated
12:17AM 42.9328 -71.4358 154° Southeast  Level Estimated
12:18AM 42.9328 -71.4358 154° Southeast  Level Estimated
12:19AM 42.9328 -71.4358 154° Southeast  Level Estimated
12:20AM 42.9328 -71.4358 154° Southeast  Level Estimated
12:21AM 42.9328 -71.4358 154° Southeast  Level Estimated
12:22AM 42.9328 -71.4358 154° Southeast  Level Estimated